Main page
METAR-TAF:

METAR-TAF

Airports :

Rajmata Vijaya Raje Scindia Airport

Gwalior, India

latitude: 26-17-36N, longitude: 78-13-40E, elevation: 188 m

METAR: missing

Time: 12:08 (06:38 UTC)

Forecast

The report was made 3 hours and 8 minutes ago, at 03:30 UTC
Forecast valid from 08 at 06 UTC to 08 at 18 UTC
Wind 5 kt from the West
Visibility: 4500 m
haze
Temporary
from 08 at 08 UTC to 08 at 10 UTC
Wind 5 kt from the West/Northwest
Visibility: 6000 m
Becoming
from 08 at 14 UTC to 08 at 16 UTC
Wind 2 kt from variable directions
Visibility: 4000 m
mist
Becoming
from 08 at 17 UTC to 08 at 18 UTC
Wind 2 kt from variable directions
Visibility: 3000 m
mist

TAF: VIGR 080330Z 0806/0818 28005KT 4500 HZ TEMPO 0808/0810 30005KT 6000 NSC BECMG 0814/0816 VRB02KT 4000 BR NSC BECMG 0817/0818 VRB02KT 3000 BR NSC

Weather observations and forecasts of more than 4000 airports (METAR and TAF reports).

The available stations are represented by yellow and red dots on the map.

Hover mouse over dot to see the name of the station.

Then click to see weather observations and forecasts.

To change the map : click on the green buttons with a black cross to zoom in, on the green button with a dash to zoom out, or on the green arrows for adjacent maps.


METAR-TAF: